sensor_id;sensor_type;location;lat;lon;timestamp;temperature;humidity
53152;DHT22;39234;53.158;6.322;2023-05-07T00:00:29;12.20;99.90
53152;DHT22;39234;53.158;6.322;2023-05-07T00:02:55;12.40;99.90
53152;DHT22;39234;53.158;6.322;2023-05-07T00:05:21;12.30;99.90
53152;DHT22;39234;53.158;6.322;2023-05-07T00:07:47;12.30;99.90
53152;DHT22;39234;53.158;6.322;2023-05-07T00:10:13;12.10;99.90
53152;DHT22;39234;53.158;6.322;2023-05-07T00:12:39;12.20;99.90
53152;DHT22;39234;53.158;6.322;2023-05-07T00:15:06;12.40;99.90
53152;DHT22;39234;53.158;6.322;2023-05-07T00:17:33;12.20;99.90
53152;DHT22;39234;53.158;6.322;2023-05-07T00:19:59;12.30;99.90
53152;DHT22;39234;53.158;6.322;2023-05-07T00:22:24;12.00;99.90
53152;DHT22;39234;53.158;6.322;2023-05-07T00:24:50;12.20;99.90
53152;DHT22;39234;53.158;6.322;2023-05-07T00:27:16;12.20;99.90
53152;DHT22;39234;53.158;6.322;2023-05-07T00:29:42;12.10;99.90
53152;DHT22;39234;53.158;6.322;2023-05-07T00:32:08;12.10;99.90
53152;DHT22;39234;53.158;6.322;2023-05-07T00:34:34;12.20;99.90
53152;DHT22;39234;53.158;6.322;2023-05-07T00:37:01;12.20;99.90
53152;DHT22;39234;53.158;6.322;2023-05-07T00:39:26;12.00;99.90
53152;DHT22;39234;53.158;6.322;2023-05-07T00:41:52;12.20;99.90
53152;DHT22;39234;53.158;6.322;2023-05-07T00:44:18;12.10;99.90
53152;DHT22;39234;53.158;6.322;2023-05-07T00:46:44;11.80;99.90
53152;DHT22;39234;53.158;6.322;2023-05-07T00:49:15;12.00;99.90
53152;DHT22;39234;53.158;6.322;2023-05-07T00:51:42;11.90;99.90
53152;DHT22;39234;53.158;6.322;2023-05-07T00:54:08;11.80;99.90
53152;DHT22;39234;53.158;6.322;2023-05-07T00:56:34;12.00;99.90
53152;DHT22;39234;53.158;6.322;2023-05-07T00:59:02;11.70;99.90
53152;DHT22;39234;53.158;6.322;2023-05-07T01:01:28;11.80;99.90
53152;DHT22;39234;53.158;6.322;2023-05-07T01:03:54;11.80;99.90
53152;DHT22;39234;53.158;6.322;2023-05-07T01:06:20;11.70;99.90
53152;DHT22;39234;53.158;6.322;2023-05-07T01:08:47;11.70;99.90
53152;DHT22;39234;53.158;6.322;2023-05-07T01:11:14;11.60;99.90
53152;DHT22;39234;53.158;6.322;2023-05-07T01:13:40;11.70;99.90
53152;DHT22;39234;53.158;6.322;2023-05-07T01:16:08;11.60;99.90
53152;DHT22;39234;53.158;6.322;2023-05-07T01:18:35;11.50;99.90
53152;DHT22;39234;53.158;6.322;2023-05-07T01:21:01;11.40;99.90
53152;DHT22;39234;53.158;6.322;2023-05-07T01:23:29;11.50;99.90
53152;DHT22;39234;53.158;6.322;2023-05-07T01:25:56;11.50;99.90
53152;DHT22;39234;53.158;6.322;2023-05-07T01:28:22;11.70;99.90
53152;DHT22;39234;53.158;6.322;2023-05-07T01:31:02;11.60;99.90
53152;DHT22;39234;53.158;6.322;2023-05-07T01:33:31;11.70;99.90
53152;DHT22;39234;53.158;6.322;2023-05-07T01:35:59;11.50;99.90
53152;DHT22;39234;53.158;6.322;2023-05-07T01:38:28;11.00;99.90
53152;DHT22;39234;53.158;6.322;2023-05-07T01:40:54;11.50;99.90
53152;DHT22;39234;53.158;6.322;2023-05-07T01:43:20;11.60;99.90
53152;DHT22;39234;53.158;6.322;2023-05-07T01:45:47;12.00;99.90
53152;DHT22;39234;53.158;6.322;2023-05-07T01:48:14;11.40;99.90
53152;DHT22;39234;53.158;6.322;2023-05-07T01:50:41;11.40;99.90
53152;DHT22;39234;53.158;6.322;2023-05-07T01:53:08;11.30;99.90
53152;DHT22;39234;53.158;6.322;2023-05-07T01:55:34;11.30;99.90
53152;DHT22;39234;53.158;6.322;2023-05-07T01:57:59;11.40;99.90
53152;DHT22;39234;53.158;6.322;2023-05-07T02:00:25;11.30;99.90
53152;DHT22;39234;53.158;6.322;2023-05-07T02:02:51;11.20;99.90
53152;DHT22;39234;53.158;6.322;2023-05-07T02:05:18;11.10;99.90
53152;DHT22;39234;53.158;6.322;2023-05-07T02:07:43;11.20;99.90
53152;DHT22;39234;53.158;6.322;2023-05-07T02:10:10;11.20;99.90
53152;DHT22;39234;53.158;6.322;2023-05-07T02:12:35;11.20;99.90
53152;DHT22;39234;53.158;6.322;2023-05-07T02:15:01;11.20;99.90
53152;DHT22;39234;53.158;6.322;2023-05-07T02:17:27;11.30;99.90
53152;DHT22;39234;53.158;6.322;2023-05-07T02:19:53;11.00;99.90
53152;DHT22;39234;53.158;6.322;2023-05-07T02:22:18;11.10;99.90
53152;DHT22;39234;53.158;6.322;2023-05-07T02:24:44;11.10;99.90
53152;DHT22;39234;53.158;6.322;2023-05-07T02:27:10;10.90;99.90
53152;DHT22;39234;53.158;6.322;2023-05-07T02:29:36;11.10;99.90
53152;DHT22;39234;53.158;6.322;2023-05-07T02:32:02;10.90;99.90
53152;DHT22;39234;53.158;6.322;2023-05-07T02:34:27;11.00;99.90
53152;DHT22;39234;53.158;6.322;2023-05-07T02:36:53;10.80;99.90
53152;DHT22;39234;53.158;6.322;2023-05-07T02:39:19;10.90;99.90
53152;DHT22;39234;53.158;6.322;2023-05-07T02:41:45;10.90;99.90
53152;DHT22;39234;53.158;6.322;2023-05-07T02:44:10;10.90;99.90
53152;DHT22;39234;53.158;6.322;2023-05-07T02:46:36;10.80;99.90
53152;DHT22;39234;53.158;6.322;2023-05-07T02:49:02;11.00;99.90
53152;DHT22;39234;53.158;6.322;2023-05-07T02:51:27;10.80;99.90
53152;DHT22;39234;53.158;6.322;2023-05-07T02:53:53;10.60;99.90
53152;DHT22;39234;53.158;6.322;2023-05-07T02:56:19;10.70;99.90
53152;DHT22;39234;53.158;6.322;2023-05-07T02:58:45;10.70;99.90
53152;DHT22;39234;53.158;6.322;2023-05-07T03:01:11;10.60;99.90
53152;DHT22;39234;53.158;6.322;2023-05-07T03:03:37;10.60;99.90
53152;DHT22;39234;53.158;6.322;2023-05-07T03:06:03;10.70;99.90
53152;DHT22;39234;53.158;6.322;2023-05-07T03:08:29;10.60;99.90
53152;DHT22;39234;53.158;6.322;2023-05-07T03:10:54;10.70;99.90
53152;DHT22;39234;53.158;6.322;2023-05-07T03:13:20;10.70;99.90
53152;DHT22;39234;53.158;6.322;2023-05-07T03:15:46;10.70;99.90
53152;DHT22;39234;53.158;6.322;2023-05-07T03:18:12;10.50;99.90
53152;DHT22;39234;53.158;6.322;2023-05-07T03:20:38;10.60;99.90
53152;DHT22;39234;53.158;6.322;2023-05-07T03:23:04;10.60;99.90
53152;DHT22;39234;53.158;6.322;2023-05-07T03:25:29;10.80;99.90
53152;DHT22;39234;53.158;6.322;2023-05-07T03:27:56;10.50;99.90
53152;DHT22;39234;53.158;6.322;2023-05-07T03:30:22;10.50;99.90
53152;DHT22;39234;53.158;6.322;2023-05-07T03:32:48;10.60;99.90
53152;DHT22;39234;53.158;6.322;2023-05-07T03:35:14;10.60;99.90
53152;DHT22;39234;53.158;6.322;2023-05-07T03:37:40;10.40;99.90
53152;DHT22;39234;53.158;6.322;2023-05-07T03:40:06;10.90;99.90
53152;DHT22;39234;53.158;6.322;2023-05-07T03:42:32;10.60;99.90
53152;DHT22;39234;53.158;6.322;2023-05-07T03:44:57;10.90;99.90
53152;DHT22;39234;53.158;6.322;2023-05-07T03:47:23;10.70;99.90
53152;DHT22;39234;53.158;6.322;2023-05-07T03:49:49;10.70;99.90
53152;DHT22;39234;53.158;6.322;2023-05-07T03:52:16;10.50;99.90
53152;DHT22;39234;53.158;6.322;2023-05-07T03:54:41;10.50;99.90
53152;DHT22;39234;53.158;6.322;2023-05-07T03:57:07;10.60;99.90
53152;DHT22;39234;53.158;6.322;2023-05-07T03:59:33;10.50;99.90
53152;DHT22;39234;53.158;6.322;2023-05-07T04:01:58;10.70;99.90
53152;DHT22;39234;53.158;6.322;2023-05-07T04:04:24;10.50;99.90
53152;DHT22;39234;53.158;6.322;2023-05-07T04:06:50;10.50;99.90
53152;DHT22;39234;53.158;6.322;2023-05-07T04:09:16;10.50;99.90
53152;DHT22;39234;53.158;6.322;2023-05-07T04:11:42;10.60;99.90
53152;DHT22;39234;53.158;6.322;2023-05-07T04:14:08;10.50;99.90
53152;DHT22;39234;53.158;6.322;2023-05-07T04:16:35;10.40;99.90
53152;DHT22;39234;53.158;6.322;2023-05-07T04:19:00;10.60;99.90
53152;DHT22;39234;53.158;6.322;2023-05-07T04:21:26;10.50;99.90
53152;DHT22;39234;53.158;6.322;2023-05-07T04:23:52;10.50;99.90
53152;DHT22;39234;53.158;6.322;2023-05-07T04:26:18;10.40;99.90
53152;DHT22;39234;53.158;6.322;2023-05-07T04:28:43;10.50;99.90
53152;DHT22;39234;53.158;6.322;2023-05-07T04:31:09;10.40;99.90
53152;DHT22;39234;53.158;6.322;2023-05-07T04:33:35;10.50;99.90
53152;DHT22;39234;53.158;6.322;2023-05-07T04:36:02;10.50;99.90
53152;DHT22;39234;53.158;6.322;2023-05-07T04:38:31;10.30;99.90
53152;DHT22;39234;53.158;6.322;2023-05-07T04:41:02;10.60;99.90
53152;DHT22;39234;53.158;6.322;2023-05-07T04:43:28;10.60;99.90
53152;DHT22;39234;53.158;6.322;2023-05-07T04:45:54;10.60;99.90
53152;DHT22;39234;53.158;6.322;2023-05-07T04:48:20;10.40;99.90
53152;DHT22;39234;53.158;6.322;2023-05-07T04:50:52;10.40;99.90
53152;DHT22;39234;53.158;6.322;2023-05-07T04:53:18;10.50;99.90
53152;DHT22;39234;53.158;6.322;2023-05-07T04:55:44;10.40;99.90
53152;DHT22;39234;53.158;6.322;2023-05-07T04:58:11;10.40;99.90
53152;DHT22;39234;53.158;6.322;2023-05-07T05:00:38;10.30;99.90
53152;DHT22;39234;53.158;6.322;2023-05-07T05:03:06;10.50;99.90
53152;DHT22;39234;53.158;6.322;2023-05-07T05:05:32;10.40;99.90
53152;DHT22;39234;53.158;6.322;2023-05-07T05:07:58;10.50;99.90
53152;DHT22;39234;53.158;6.322;2023-05-07T05:10:23;10.50;99.90
53152;DHT22;39234;53.158;6.322;2023-05-07T05:12:50;10.40;99.90
53152;DHT22;39234;53.158;6.322;2023-05-07T05:15:16;10.40;99.90
53152;DHT22;39234;53.158;6.322;2023-05-07T05:17:42;10.60;99.90
53152;DHT22;39234;53.158;6.322;2023-05-07T05:20:07;10.50;99.90
53152;DHT22;39234;53.158;6.322;2023-05-07T05:22:35;10.40;99.90
53152;DHT22;39234;53.158;6.322;2023-05-07T05:25:00;10.40;99.90
53152;DHT22;39234;53.158;6.322;2023-05-07T05:27:26;10.40;99.90
53152;DHT22;39234;53.158;6.322;2023-05-07T05:29:52;10.50;99.90
53152;DHT22;39234;53.158;6.322;2023-05-07T05:32:18;10.50;99.90
53152;DHT22;39234;53.158;6.322;2023-05-07T05:34:43;10.50;99.90
53152;DHT22;39234;53.158;6.322;2023-05-07T05:37:09;10.40;99.90
53152;DHT22;39234;53.158;6.322;2023-05-07T05:39:36;10.20;99.90
53152;DHT22;39234;53.158;6.322;2023-05-07T05:42:02;10.40;99.90
53152;DHT22;39234;53.158;6.322;2023-05-07T05:44:27;10.40;99.90
53152;DHT22;39234;53.158;6.322;2023-05-07T05:46:53;10.50;99.90
53152;DHT22;39234;53.158;6.322;2023-05-07T05:49:23;11.60;99.90
53152;DHT22;39234;53.158;6.322;2023-05-07T05:51:48;10.90;99.90
53152;DHT22;39234;53.158;6.322;2023-05-07T05:54:14;10.60;99.90
53152;DHT22;39234;53.158;6.322;2023-05-07T05:56:41;10.40;99.90
53152;DHT22;39234;53.158;6.322;2023-05-07T05:59:07;10.40;99.90
53152;DHT22;39234;53.158;6.322;2023-05-07T06:01:33;10.50;99.90
53152;DHT22;39234;53.158;6.322;2023-05-07T06:03:58;10.60;99.90
53152;DHT22;39234;53.158;6.322;2023-05-07T06:06:24;10.40;99.90
53152;DHT22;39234;53.158;6.322;2023-05-07T06:08:50;10.70;99.90
53152;DHT22;39234;53.158;6.322;2023-05-07T06:11:16;10.60;99.90
53152;DHT22;39234;53.158;6.322;2023-05-07T06:13:41;10.50;99.90
53152;DHT22;39234;53.158;6.322;2023-05-07T06:16:07;10.70;99.90
53152;DHT22;39234;53.158;6.322;2023-05-07T06:18:33;10.80;99.90
53152;DHT22;39234;53.158;6.322;2023-05-07T06:21:01;10.70;99.90
53152;DHT22;39234;53.158;6.322;2023-05-07T06:23:27;10.80;99.90
53152;DHT22;39234;53.158;6.322;2023-05-07T06:25:53;10.80;99.90
53152;DHT22;39234;53.158;6.322;2023-05-07T06:28:19;10.90;99.90
53152;DHT22;39234;53.158;6.322;2023-05-07T06:30:44;10.80;99.90
53152;DHT22;39234;53.158;6.322;2023-05-07T06:33:10;10.90;99.90
53152;DHT22;39234;53.158;6.322;2023-05-07T06:35:36;11.10;99.90
53152;DHT22;39234;53.158;6.322;2023-05-07T06:38:02;10.90;99.90
53152;DHT22;39234;53.158;6.322;2023-05-07T06:40:27;10.90;99.90
53152;DHT22;39234;53.158;6.322;2023-05-07T06:42:53;11.20;99.90
53152;DHT22;39234;53.158;6.322;2023-05-07T06:45:19;11.00;99.90
53152;DHT22;39234;53.158;6.322;2023-05-07T06:47:45;11.00;99.90
53152;DHT22;39234;53.158;6.322;2023-05-07T06:50:11;11.30;99.90
53152;DHT22;39234;53.158;6.322;2023-05-07T06:52:37;11.10;99.90
53152;DHT22;39234;53.158;6.322;2023-05-07T06:55:03;11.30;99.90
53152;DHT22;39234;53.158;6.322;2023-05-07T06:57:29;11.20;99.90
53152;DHT22;39234;53.158;6.322;2023-05-07T06:59:55;11.40;99.90
53152;DHT22;39234;53.158;6.322;2023-05-07T07:02:21;11.20;99.90
53152;DHT22;39234;53.158;6.322;2023-05-07T07:04:47;11.00;99.90
53152;DHT22;39234;53.158;6.322;2023-05-07T07:07:13;11.00;99.90
53152;DHT22;39234;53.158;6.322;2023-05-07T07:09:38;11.00;99.90
53152;DHT22;39234;53.158;6.322;2023-05-07T07:12:04;11.10;99.90
53152;DHT22;39234;53.158;6.322;2023-05-07T07:14:30;11.30;99.90
53152;DHT22;39234;53.158;6.322;2023-05-07T07:16:56;11.20;99.90
53152;DHT22;39234;53.158;6.322;2023-05-07T07:19:21;11.20;99.90
53152;DHT22;39234;53.158;6.322;2023-05-07T07:21:47;11.10;99.90
53152;DHT22;39234;53.158;6.322;2023-05-07T07:24:14;11.30;99.90
53152;DHT22;39234;53.158;6.322;2023-05-07T07:26:45;11.10;99.90
53152;DHT22;39234;53.158;6.322;2023-05-07T07:29:10;11.20;99.90
53152;DHT22;39234;53.158;6.322;2023-05-07T07:31:36;11.30;99.90
53152;DHT22;39234;53.158;6.322;2023-05-07T07:34:02;11.20;99.90
53152;DHT22;39234;53.158;6.322;2023-05-07T07:36:28;11.20;99.90
53152;DHT22;39234;53.158;6.322;2023-05-07T07:38:54;11.30;99.90
53152;DHT22;39234;53.158;6.322;2023-05-07T07:41:19;11.30;99.90
53152;DHT22;39234;53.158;6.322;2023-05-07T07:43:45;11.20;99.90
53152;DHT22;39234;53.158;6.322;2023-05-07T07:46:12;11.40;99.90
53152;DHT22;39234;53.158;6.322;2023-05-07T07:48:38;11.40;99.90
53152;DHT22;39234;53.158;6.322;2023-05-07T07:51:03;11.30;99.90
53152;DHT22;39234;53.158;6.322;2023-05-07T07:53:30;11.50;99.90
53152;DHT22;39234;53.158;6.322;2023-05-07T07:55:56;11.40;99.90
53152;DHT22;39234;53.158;6.322;2023-05-07T07:58:21;11.60;99.90
53152;DHT22;39234;53.158;6.322;2023-05-07T08:00:48;11.40;99.90
53152;DHT22;39234;53.158;6.322;2023-05-07T08:03:14;11.50;99.90
53152;DHT22;39234;53.158;6.322;2023-05-07T08:05:42;11.50;99.90
53152;DHT22;39234;53.158;6.322;2023-05-07T08:08:08;11.50;99.90
53152;DHT22;39234;53.158;6.322;2023-05-07T08:10:34;11.60;99.90
53152;DHT22;39234;53.158;6.322;2023-05-07T08:13:04;11.80;99.90
53152;DHT22;39234;53.158;6.322;2023-05-07T08:15:30;11.90;99.90
53152;DHT22;39234;53.158;6.322;2023-05-07T08:17:55;11.80;99.90
53152;DHT22;39234;53.158;6.322;2023-05-07T08:20:23;11.80;99.90
53152;DHT22;39234;53.158;6.322;2023-05-07T08:22:49;11.80;99.90
53152;DHT22;39234;53.158;6.322;2023-05-07T08:25:14;11.90;99.90
53152;DHT22;39234;53.158;6.322;2023-05-07T08:27:40;12.00;99.90
53152;DHT22;39234;53.158;6.322;2023-05-07T08:30:07;14.10;99.90
53152;DHT22;39234;53.158;6.322;2023-05-07T08:32:33;12.20;99.90
53152;DHT22;39234;53.158;6.322;2023-05-07T08:34:59;12.50;99.90
53152;DHT22;39234;53.158;6.322;2023-05-07T08:37:24;12.50;99.90
53152;DHT22;39234;53.158;6.322;2023-05-07T08:39:50;12.70;99.90
53152;DHT22;39234;53.158;6.322;2023-05-07T08:42:16;12.50;99.90
53152;DHT22;39234;53.158;6.322;2023-05-07T08:44:45;12.80;99.90
53152;DHT22;39234;53.158;6.322;2023-05-07T08:47:14;11.70;99.90
53152;DHT22;39234;53.158;6.322;2023-05-07T08:49:40;12.80;99.90
53152;DHT22;39234;53.158;6.322;2023-05-07T08:52:05;12.80;99.90
53152;DHT22;39234;53.158;6.322;2023-05-07T08:54:31;12.60;99.90
53152;DHT22;39234;53.158;6.322;2023-05-07T08:56:57;12.50;99.90
53152;DHT22;39234;53.158;6.322;2023-05-07T08:59:23;12.50;99.90
53152;DHT22;39234;53.158;6.322;2023-05-07T09:01:49;12.60;99.90
53152;DHT22;39234;53.158;6.322;2023-05-07T09:04:15;12.60;99.90
53152;DHT22;39234;53.158;6.322;2023-05-07T09:06:40;12.80;99.90
53152;DHT22;39234;53.158;6.322;2023-05-07T09:09:07;12.80;99.90
53152;DHT22;39234;53.158;6.322;2023-05-07T09:11:33;12.90;99.90
53152;DHT22;39234;53.158;6.322;2023-05-07T09:13:59;13.20;99.90
53152;DHT22;39234;53.158;6.322;2023-05-07T09:16:29;13.20;99.90
53152;DHT22;39234;53.158;6.322;2023-05-07T09:18:58;13.40;99.90
53152;DHT22;39234;53.158;6.322;2023-05-07T09:21:25;13.50;99.90
53152;DHT22;39234;53.158;6.322;2023-05-07T09:23:53;13.60;99.90
53152;DHT22;39234;53.158;6.322;2023-05-07T09:26:21;13.50;99.90
53152;DHT22;39234;53.158;6.322;2023-05-07T09:28:47;13.50;99.90
53152;DHT22;39234;53.158;6.322;2023-05-07T09:31:13;13.70;99.90
53152;DHT22;39234;53.158;6.322;2023-05-07T09:33:39;13.80;99.90
53152;DHT22;39234;53.158;6.322;2023-05-07T09:36:06;13.70;99.90
53152;DHT22;39234;53.158;6.322;2023-05-07T09:38:33;14.10;99.90
53152;DHT22;39234;53.158;6.322;2023-05-07T09:43:34;14.20;99.90
53152;DHT22;39234;53.158;6.322;2023-05-07T09:46:12;14.20;99.90
53152;DHT22;39234;53.158;6.322;2023-05-07T09:48:40;14.10;99.90
53152;DHT22;39234;53.158;6.322;2023-05-07T09:51:25;14.40;99.90
53152;DHT22;39234;53.158;6.322;2023-05-07T09:53:53;14.60;99.90
53152;DHT22;39234;53.158;6.322;2023-05-07T09:56:19;14.90;99.90
53152;DHT22;39234;53.158;6.322;2023-05-07T09:58:46;14.30;99.90
53152;DHT22;39234;53.158;6.322;2023-05-07T10:01:12;15.00;99.90
53152;DHT22;39234;53.158;6.322;2023-05-07T10:03:40;14.90;99.90
53152;DHT22;39234;53.158;6.322;2023-05-07T10:06:09;15.30;99.90
53152;DHT22;39234;53.158;6.322;2023-05-07T10:08:36;15.40;99.90
53152;DHT22;39234;53.158;6.322;2023-05-07T10:11:04;15.60;99.90
53152;DHT22;39234;53.158;6.322;2023-05-07T10:13:32;15.60;99.90
53152;DHT22;39234;53.158;6.322;2023-05-07T10:15:58;15.80;99.90
53152;DHT22;39234;53.158;6.322;2023-05-07T10:18:25;15.90;99.90
53152;DHT22;39234;53.158;6.322;2023-05-07T10:20:58;15.80;99.90
53152;DHT22;39234;53.158;6.322;2023-05-07T10:23:24;15.70;99.90
53152;DHT22;39234;53.158;6.322;2023-05-07T10:25:52;15.50;99.90
53152;DHT22;39234;53.158;6.322;2023-05-07T10:28:21;13.50;99.90
53152;DHT22;39234;53.158;6.322;2023-05-07T10:33:27;16.00;99.90
53152;DHT22;39234;53.158;6.322;2023-05-07T10:35:58;15.90;99.90
53152;DHT22;39234;53.158;6.322;2023-05-07T10:38:26;16.10;99.90
53152;DHT22;39234;53.158;6.322;2023-05-07T10:40:53;16.20;99.90
53152;DHT22;39234;53.158;6.322;2023-05-07T10:43:18;16.40;99.90
53152;DHT22;39234;53.158;6.322;2023-05-07T10:46:17;16.30;99.90
53152;DHT22;39234;53.158;6.322;2023-05-07T10:51:32;16.20;99.90
53152;DHT22;39234;53.158;6.322;2023-05-07T10:54:17;16.20;99.90
53152;DHT22;39234;53.158;6.322;2023-05-07T10:56:43;16.00;99.90
53152;DHT22;39234;53.158;6.322;2023-05-07T11:01:53;16.20;99.90
53152;DHT22;39234;53.158;6.322;2023-05-07T11:04:20;16.40;99.90
53152;DHT22;39234;53.158;6.322;2023-05-07T11:09:54;16.90;99.90
53152;DHT22;39234;53.158;6.322;2023-05-07T11:15:07;16.90;99.90
53152;DHT22;39234;53.158;6.322;2023-05-07T11:17:34;17.00;99.90
53152;DHT22;39234;53.158;6.322;2023-05-07T11:20:01;17.10;99.90
53152;DHT22;39234;53.158;6.322;2023-05-07T11:24:56;17.50;99.90
53152;DHT22;39234;53.158;6.322;2023-05-07T11:27:23;17.70;99.90
53152;DHT22;39234;53.158;6.322;2023-05-07T11:29:50;17.50;99.90
53152;DHT22;39234;53.158;6.322;2023-05-07T11:32:25;17.80;99.90
53152;DHT22;39234;53.158;6.322;2023-05-07T11:34:52;18.10;99.90
53152;DHT22;39234;53.158;6.322;2023-05-07T11:37:21;18.30;99.90
53152;DHT22;39234;53.158;6.322;2023-05-07T11:39:47;18.40;99.90
53152;DHT22;39234;53.158;6.322;2023-05-07T11:44:54;18.60;99.90
53152;DHT22;39234;53.158;6.322;2023-05-07T11:47:20;18.80;99.90
53152;DHT22;39234;53.158;6.322;2023-05-07T11:49:48;19.00;99.90
53152;DHT22;39234;53.158;6.322;2023-05-07T11:52:15;18.90;99.90
53152;DHT22;39234;53.158;6.322;2023-05-07T11:54:44;18.90;99.90
53152;DHT22;39234;53.158;6.322;2023-05-07T11:57:17;18.90;99.90
53152;DHT22;39234;53.158;6.322;2023-05-07T11:59:43;18.60;99.90
53152;DHT22;39234;53.158;6.322;2023-05-07T12:02:16;18.40;99.90
53152;DHT22;39234;53.158;6.322;2023-05-07T12:04:42;18.10;99.90
53152;DHT22;39234;53.158;6.322;2023-05-07T12:07:15;18.30;99.90
53152;DHT22;39234;53.158;6.322;2023-05-07T12:09:47;18.20;99.90
53152;DHT22;39234;53.158;6.322;2023-05-07T12:12:13;18.30;99.90
53152;DHT22;39234;53.158;6.322;2023-05-07T12:14:43;18.50;99.90
53152;DHT22;39234;53.158;6.322;2023-05-07T12:17:11;18.50;99.90
53152;DHT22;39234;53.158;6.322;2023-05-07T12:19:39;18.20;99.90
53152;DHT22;39234;53.158;6.322;2023-05-07T12:22:07;18.40;99.90
53152;DHT22;39234;53.158;6.322;2023-05-07T12:24:56;18.40;99.90
53152;DHT22;39234;53.158;6.322;2023-05-07T12:27:22;18.20;99.90
53152;DHT22;39234;53.158;6.322;2023-05-07T12:29:49;18.20;99.90
53152;DHT22;39234;53.158;6.322;2023-05-07T12:32:17;18.20;99.90
53152;DHT22;39234;53.158;6.322;2023-05-07T12:34:44;18.10;99.90
53152;DHT22;39234;53.158;6.322;2023-05-07T12:37:10;17.90;99.90
53152;DHT22;39234;53.158;6.322;2023-05-07T12:39:36;17.90;99.90
53152;DHT22;39234;53.158;6.322;2023-05-07T12:42:02;17.90;99.90
53152;DHT22;39234;53.158;6.322;2023-05-07T12:44:32;18.00;99.90
53152;DHT22;39234;53.158;6.322;2023-05-07T12:47:01;18.10;99.90
53152;DHT22;39234;53.158;6.322;2023-05-07T12:49:27;18.70;99.90
53152;DHT22;39234;53.158;6.322;2023-05-07T12:51:53;18.60;99.90
53152;DHT22;39234;53.158;6.322;2023-05-07T12:54:33;18.80;99.90
53152;DHT22;39234;53.158;6.322;2023-05-07T12:57:08;19.10;99.90
53152;DHT22;39234;53.158;6.322;2023-05-07T12:59:41;18.80;99.90
53152;DHT22;39234;53.158;6.322;2023-05-07T13:02:08;18.90;99.90
53152;DHT22;39234;53.158;6.322;2023-05-07T13:04:34;18.90;99.90
53152;DHT22;39234;53.158;6.322;2023-05-07T13:07:00;19.00;99.90
53152;DHT22;39234;53.158;6.322;2023-05-07T13:09:26;18.90;99.90
53152;DHT22;39234;53.158;6.322;2023-05-07T13:11:54;19.00;99.90
53152;DHT22;39234;53.158;6.322;2023-05-07T13:14:20;19.50;99.90
53152;DHT22;39234;53.158;6.322;2023-05-07T13:16:47;19.80;99.90
53152;DHT22;39234;53.158;6.322;2023-05-07T13:19:12;19.60;99.90
53152;DHT22;39234;53.158;6.322;2023-05-07T13:21:38;19.60;99.90
53152;DHT22;39234;53.158;6.322;2023-05-07T13:24:04;19.50;99.90
53152;DHT22;39234;53.158;6.322;2023-05-07T13:26:31;19.60;99.90
53152;DHT22;39234;53.158;6.322;2023-05-07T13:28:57;19.50;99.90
53152;DHT22;39234;53.158;6.322;2023-05-07T13:31:23;19.40;99.90
53152;DHT22;39234;53.158;6.322;2023-05-07T13:33:49;19.50;99.90
53152;DHT22;39234;53.158;6.322;2023-05-07T13:36:15;19.70;99.90
53152;DHT22;39234;53.158;6.322;2023-05-07T13:38:40;19.70;99.90
53152;DHT22;39234;53.158;6.322;2023-05-07T13:41:06;19.30;99.90
53152;DHT22;39234;53.158;6.322;2023-05-07T13:43:32;20.20;99.90
53152;DHT22;39234;53.158;6.322;2023-05-07T13:45:59;19.30;99.90
53152;DHT22;39234;53.158;6.322;2023-05-07T13:48:25;19.40;99.90
53152;DHT22;39234;53.158;6.322;2023-05-07T13:50:51;19.40;99.90
53152;DHT22;39234;53.158;6.322;2023-05-07T13:53:17;19.20;99.90
53152;DHT22;39234;53.158;6.322;2023-05-07T13:55:44;19.00;99.90
53152;DHT22;39234;53.158;6.322;2023-05-07T13:58:10;19.00;99.90
53152;DHT22;39234;53.158;6.322;2023-05-07T14:00:36;18.70;99.90
53152;DHT22;39234;53.158;6.322;2023-05-07T14:03:02;19.00;99.90
53152;DHT22;39234;53.158;6.322;2023-05-07T14:05:29;19.10;99.90
53152;DHT22;39234;53.158;6.322;2023-05-07T14:07:57;18.90;99.90
53152;DHT22;39234;53.158;6.322;2023-05-07T14:10:23;18.80;99.90
53152;DHT22;39234;53.158;6.322;2023-05-07T14:12:49;18.60;99.90
53152;DHT22;39234;53.158;6.322;2023-05-07T14:15:15;18.70;99.90
53152;DHT22;39234;53.158;6.322;2023-05-07T14:17:42;18.90;99.90
53152;DHT22;39234;53.158;6.322;2023-05-07T14:20:08;18.60;99.90
53152;DHT22;39234;53.158;6.322;2023-05-07T14:22:36;18.90;99.90
53152;DHT22;39234;53.158;6.322;2023-05-07T14:25:01;18.80;99.90
53152;DHT22;39234;53.158;6.322;2023-05-07T14:27:27;18.90;99.90
53152;DHT22;39234;53.158;6.322;2023-05-07T14:29:53;18.70;99.90
53152;DHT22;39234;53.158;6.322;2023-05-07T14:32:19;18.60;99.90
53152;DHT22;39234;53.158;6.322;2023-05-07T14:34:45;18.70;99.90
53152;DHT22;39234;53.158;6.322;2023-05-07T14:37:11;18.90;99.90
53152;DHT22;39234;53.158;6.322;2023-05-07T14:39:37;19.00;99.90
53152;DHT22;39234;53.158;6.322;2023-05-07T14:42:03;19.10;99.90
53152;DHT22;39234;53.158;6.322;2023-05-07T14:44:28;18.90;99.90
53152;DHT22;39234;53.158;6.322;2023-05-07T14:46:55;19.10;99.90
53152;DHT22;39234;53.158;6.322;2023-05-07T14:49:20;19.10;99.90
53152;DHT22;39234;53.158;6.322;2023-05-07T14:51:47;19.00;99.90
53152;DHT22;39234;53.158;6.322;2023-05-07T14:54:13;19.00;99.90
53152;DHT22;39234;53.158;6.322;2023-05-07T14:56:40;19.20;99.90
53152;DHT22;39234;53.158;6.322;2023-05-07T14:59:07;19.00;99.90
53152;DHT22;39234;53.158;6.322;2023-05-07T15:01:35;19.20;99.90
53152;DHT22;39234;53.158;6.322;2023-05-07T15:04:03;19.10;99.90
53152;DHT22;39234;53.158;6.322;2023-05-07T15:06:29;19.10;99.90
53152;DHT22;39234;53.158;6.322;2023-05-07T15:08:55;19.10;99.90
53152;DHT22;39234;53.158;6.322;2023-05-07T15:11:21;19.10;99.90
53152;DHT22;39234;53.158;6.322;2023-05-07T15:13:46;19.10;99.90
53152;DHT22;39234;53.158;6.322;2023-05-07T15:16:12;19.10;99.90
53152;DHT22;39234;53.158;6.322;2023-05-07T15:18:38;19.00;99.90
53152;DHT22;39234;53.158;6.322;2023-05-07T15:21:04;19.00;99.90
53152;DHT22;39234;53.158;6.322;2023-05-07T15:23:30;19.10;99.90
53152;DHT22;39234;53.158;6.322;2023-05-07T15:25:56;19.10;99.90
53152;DHT22;39234;53.158;6.322;2023-05-07T15:28:22;19.10;99.90
53152;DHT22;39234;53.158;6.322;2023-05-07T15:30:49;19.30;99.90
53152;DHT22;39234;53.158;6.322;2023-05-07T15:33:15;19.00;99.90
53152;DHT22;39234;53.158;6.322;2023-05-07T15:35:41;18.90;99.90
53152;DHT22;39234;53.158;6.322;2023-05-07T15:38:07;19.00;99.90
53152;DHT22;39234;53.158;6.322;2023-05-07T15:40:34;19.00;99.90
53152;DHT22;39234;53.158;6.322;2023-05-07T15:43:00;19.00;99.90
53152;DHT22;39234;53.158;6.322;2023-05-07T15:45:28;19.00;99.90
53152;DHT22;39234;53.158;6.322;2023-05-07T15:47:54;18.70;99.90